Time;durP1;ratioP1;P1;durP2;ratioP2;P2;SDS_P1;SDS_P2;PMS_P1;PMS_P2;Temp;Humidity;BMP_temperature;BMP_pressure;BME280_temperature;BME280_humidity;BME280_pressure;Samples;Min_cycle;Max_cycle;Signal;HPM_P1;HPM_P2
2021/09/02 00:01:23;;;;;;;4.68;3.90;;;;;;;10.92;100.00;96753.28;5009612;28;20420;-76
2021/09/02 00:03:50;;;;;;;4.97;3.90;;;;;;;10.94;99.09;96743.69;5009556;28;20620;-76
2021/09/02 00:06:15;;;;;;;10.03;3.97;;;;;;;10.76;97.87;96743.66;5010609;28;20753;-77
2021/09/02 00:08:41;;;;;;;6.43;4.00;;;;;;;10.65;98.72;96741.59;5010666;28;20519;-76
2021/09/02 00:11:06;;;;;;;5.13;3.73;;;;;;;10.64;99.88;96736.47;5010611;28;20428;-76
2021/09/02 00:13:32;;;;;;;6.43;4.33;;;;;;;10.53;99.73;96731.81;5010685;28;20413;-75
2021/09/02 00:15:57;;;;;;;5.03;4.40;;;;;;;10.37;100.00;96734.25;5009108;28;20421;-76
2021/09/02 00:18:23;;;;;;;4.88;4.35;;;;;;;10.32;100.00;96738.84;5010692;28;20474;-75
2021/09/02 00:20:49;;;;;;;5.95;4.57;;;;;;;10.33;100.00;96740.50;5010556;28;20854;-76
2021/09/02 00:23:15;;;;;;;6.22;4.43;;;;;;;10.44;100.00;96729.66;5010599;28;20416;-76
2021/09/02 00:25:40;;;;;;;7.57;4.38;;;;;;;10.48;100.00;96725.16;5010020;28;20476;-75
2021/09/02 00:28:06;;;;;;;5.67;4.30;;;;;;;10.47;100.00;96723.50;5009229;28;20799;-76
2021/09/02 00:30:31;;;;;;;6.60;4.53;;;;;;;10.43;100.00;96716.78;5010411;28;20421;-76
2021/09/02 00:32:57;;;;;;;7.03;5.57;;;;;;;10.37;100.00;96718.72;5010622;28;20452;-76
2021/09/02 00:35:22;;;;;;;8.03;5.97;;;;;;;10.31;100.00;96720.78;5010193;28;20417;-76
2021/09/02 00:37:49;;;;;;;7.27;5.63;;;;;;;10.24;100.00;96727.13;5010896;28;20914;-76
2021/09/02 00:40:14;;;;;;;6.65;5.25;;;;;;;10.21;100.00;96728.09;5010501;28;20739;-76
2021/09/02 00:42:40;;;;;;;8.97;5.53;;;;;;;10.18;100.00;96718.72;5009334;28;20478;-76
2021/09/02 00:45:06;;;;;;;7.73;5.37;;;;;;;10.15;100.00;96723.19;5010302;28;20501;-75
2021/09/02 00:47:32;;;;;;;7.53;5.30;;;;;;;10.17;100.00;96723.97;5014940;28;20424;-76
2021/09/02 00:49:57;;;;;;;10.65;5.15;;;;;;;10.11;100.00;96711.31;5016351;28;20965;-74
2021/09/02 00:52:25;;;;;;;4.90;4.40;;;;;;;10.16;100.00;96719.72;5016935;28;20417;-75
2021/09/02 00:54:55;;;;;;;7.78;4.80;;;;;;;10.21;100.00;96715.16;5012512;28;20432;-75
2021/09/02 00:57:22;;;;;;;5.65;4.00;;;;;;;10.21;100.00;96716.91;5010216;28;20408;-76
2021/09/02 00:59:48;;;;;;;8.32;4.75;;;;;;;10.16;100.00;96711.94;5008901;28;20822;-75
2021/09/02 01:02:14;;;;;;;6.60;5.40;;;;;;;10.18;100.00;96712.69;5010779;28;20772;-74
2021/09/02 01:04:39;;;;;;;6.77;4.77;;;;;;;10.14;100.00;96719.78;5013785;28;20504;-75
2021/09/02 01:07:05;;;;;;;5.23;4.70;;;;;;;10.10;100.00;96712.22;5013292;28;20431;-76
2021/09/02 01:09:32;;;;;;;4.20;3.80;;;;;;;10.13;100.00;96709.50;5013429;28;20427;-75
2021/09/02 01:12:29;;;;;;;5.97;4.00;;;;;;;10.13;100.00;96714.69;5013615;28;20417;-74
2021/09/02 01:14:54;;;;;;;4.95;4.05;;;;;;;10.21;100.00;96706.56;5013534;28;20424;-76
2021/09/02 01:17:20;;;;;;;6.03;3.80;;;;;;;10.09;100.00;96713.97;5013244;28;20435;-75
2021/09/02 01:19:47;;;;;;;8.00;4.70;;;;;;;10.24;100.00;96699.47;5011966;28;20425;-75
2021/09/02 01:22:12;;;;;;;6.03;4.53;;;;;;;10.16;100.00;96706.78;5012096;28;20752;-76
2021/09/02 01:24:39;;;;;;;7.40;4.10;;;;;;;10.10;100.00;96707.88;5012066;28;20475;-76
2021/09/02 01:27:05;;;;;;;8.35;4.60;;;;;;;9.99;100.00;96706.69;5011739;28;20412;-77
2021/09/02 01:29:30;;;;;;;9.90;4.50;;;;;;;10.02;100.00;96707.41;5013050;28;20850;-76
2021/09/02 01:31:55;;;;;;;8.97;4.57;;;;;;;10.10;100.00;96699.28;5013197;28;20503;-76
2021/09/02 01:34:21;;;;;;;4.50;3.83;;;;;;;10.15;98.70;96697.31;5013094;28;20508;-77
2021/09/02 01:36:46;;;;;;;5.23;3.93;;;;;;;10.04;99.42;96690.03;5011509;28;20424;-75
2021/09/02 01:39:17;;;;;;;4.88;4.03;;;;;;;9.94;99.88;96689.63;5013063;28;20432;-76
2021/09/02 01:41:44;;;;;;;3.65;3.30;;;;;;;9.87;99.77;96688.22;5013070;28;20428;-75
2021/09/02 01:44:09;;;;;;;5.47;3.63;;;;;;;9.79;100.00;96687.75;5011943;28;20435;-75
2021/09/02 01:46:35;;;;;;;4.30;3.87;;;;;;;9.76;100.00;96695.63;5011260;28;21024;-76
2021/09/02 01:49:00;;;;;;;6.90;4.03;;;;;;;9.75;100.00;96696.53;5012619;28;20424;-76
2021/09/02 01:51:25;;;;;;;5.05;3.83;;;;;;;9.75;100.00;96691.34;5012924;28;20428;-76
2021/09/02 01:53:51;;;;;;;7.50;4.03;;;;;;;9.73;100.00;96688.00;5013012;28;20960;-75
2021/09/02 01:56:16;;;;;;;4.57;3.70;;;;;;;9.82;100.00;96690.16;5012483;28;20507;-76
2021/09/02 01:58:43;;;;;;;3.30;3.00;;;;;;;9.81;100.00;96688.50;5012548;28;20471;-76
2021/09/02 02:01:09;;;;;;;4.90;3.90;;;;;;;9.75;100.00;96687.94;5011315;28;20438;-76
2021/09/02 02:03:34;;;;;;;4.07;3.67;;;;;;;9.72;100.00;96690.69;5012572;28;20507;-76
2021/09/02 02:05:59;;;;;;;4.00;3.60;;;;;;;9.67;100.00;96683.09;5010934;28;20516;-76
2021/09/02 02:08:25;;;;;;;5.40;3.50;;;;;;;9.63;100.00;96684.16;5012546;28;20502;-76
2021/09/02 02:10:50;;;;;;;4.10;3.33;;;;;;;9.59;100.00;96688.63;5011381;28;20511;-75
2021/09/02 02:13:16;;;;;;;17.05;3.38;;;;;;;9.47;100.00;96691.75;5012168;28;20456;-76
2021/09/02 02:15:43;;;;;;;8.75;2.95;;;;;;;9.46;100.00;96690.06;5012159;28;20435;-76
2021/09/02 02:18:08;;;;;;;2.90;2.60;;;;;;;9.44;100.00;96684.94;5012099;28;20470;-75
2021/09/02 02:20:34;;;;;;;10.87;2.80;;;;;;;9.24;100.00;96684.16;5011077;28;20791;-76
2021/09/02 02:23:00;;;;;;;19.73;2.50;;;;;;;9.08;100.00;96677.03;5012219;28;20515;-75
2021/09/02 02:25:26;;;;;;;10.48;2.40;;;;;;;9.08;100.00;96681.34;5011830;28;20432;-75
2021/09/02 02:27:51;;;;;;;13.50;2.75;;;;;;;8.97;100.00;96684.38;5010958;28;20479;-76
2021/09/02 02:30:19;;;;;;;7.82;2.65;;;;;;;9.02;100.00;96681.63;5012038;28;20421;-76
2021/09/02 02:32:47;;;;;;;3.40;2.50;;;;;;;9.16;100.00;96681.91;5012460;28;20431;-76
2021/09/02 02:35:13;;;;;;;7.68;3.17;;;;;;;9.25;100.00;96681.50;5011806;28;20428;-75
2021/09/02 02:37:38;;;;;;;5.40;3.30;;;;;;;9.19;100.00;96682.56;5011889;28;20853;-76
2021/09/02 02:40:07;;;;;;;5.83;3.87;;;;;;;9.13;100.00;96682.84;5010735;28;20458;-76
2021/09/02 02:42:33;;;;;;;4.15;3.47;;;;;;;9.10;100.00;96682.16;5012291;28;20475;-76
2021/09/02 02:44:58;;;;;;;4.18;3.45;;;;;;;9.11;100.00;96679.50;5011814;28;20424;-76
2021/09/02 02:47:24;;;;;;;3.15;2.83;;;;;;;9.11;100.00;96682.06;5011414;28;21005;-76
2021/09/02 02:49:50;;;;;;;4.03;3.47;;;;;;;9.14;100.00;96671.59;5010338;28;20412;-76
2021/09/02 02:52:16;;;;;;;4.47;4.05;;;;;;;9.18;100.00;96680.91;5011711;28;20906;-76
2021/09/02 02:54:42;;;;;;;10.73;3.40;;;;;;;9.18;100.00;96678.31;5010400;28;20512;-76
2021/09/02 02:57:07;;;;;;;3.53;2.97;;;;;;;9.20;100.00;96680.88;5011448;28;20945;-76
2021/09/02 02:59:33;;;;;;;3.80;3.20;;;;;;;9.13;100.00;96674.28;5011415;28;20435;-76
2021/09/02 03:01:58;;;;;;;5.82;4.20;;;;;;;9.16;100.00;96669.81;5010235;28;20416;-76
2021/09/02 03:04:24;;;;;;;4.93;3.77;;;;;;;9.09;100.00;96688.22;5011528;28;20416;-76
2021/09/02 03:06:51;;;;;;;6.27;3.80;;;;;;;9.06;100.00;96683.19;5011233;28;20428;-76
2021/09/02 03:09:16;;;;;;;5.75;3.88;;;;;;;9.07;100.00;96680.53;5011397;28;20432;-76
2021/09/02 03:11:42;;;;;;;3.25;2.95;;;;;;;8.94;100.00;96679.38;5011375;28;20417;-76
2021/09/02 03:14:07;;;;;;;3.03;2.72;;;;;;;8.86;100.00;96674.53;5011352;28;20508;-76
2021/09/02 03:16:33;;;;;;;4.07;2.60;;;;;;;8.85;100.00;96675.41;5010992;28;20413;-76
2021/09/02 03:18:58;;;;;;;4.07;3.23;;;;;;;9.01;100.00;96678.22;5011198;28;20862;-76
2021/09/02 03:21:24;;;;;;;4.23;3.60;;;;;;;8.89;100.00;96676.97;5011184;28;20774;-76
2021/09/02 03:23:50;;;;;;;3.60;3.27;;;;;;;8.79;100.00;96677.41;5011359;28;20413;-76
2021/09/02 03:26:16;;;;;;;3.50;3.15;;;;;;;8.81;100.00;96679.03;5009001;28;20524;-76
2021/09/02 03:28:42;;;;;;;5.60;3.42;;;;;;;8.82;100.00;96674.69;5009732;28;20871;-76
2021/09/02 03:31:07;;;;;;;3.40;2.92;;;;;;;8.83;100.00;96669.50;5009678;28;20515;-76
2021/09/02 03:33:33;;;;;;;3.53;2.97;;;;;;;8.84;100.00;96671.16;5010001;28;20452;-76
2021/09/02 03:35:58;;;;;;;3.85;2.88;;;;;;;8.91;100.00;96675.16;5010795;28;20453;-76
2021/09/02 03:38:24;;;;;;;3.92;3.00;;;;;;;8.96;100.00;96669.81;5010926;28;20917;-76
2021/09/02 03:40:50;;;;;;;4.50;3.10;;;;;;;9.05;100.00;96668.56;5009755;28;20416;-76
2021/09/02 03:43:20;;;;;;;3.70;3.40;;;;;;;9.06;100.00;96672.84;5009971;28;20430;-75
2021/09/02 03:45:46;;;;;;;6.13;3.58;;;;;;;9.04;100.00;96672.06;5009688;28;20808;-76
2021/09/02 03:48:11;;;;;;;3.77;3.47;;;;;;;9.04;100.00;96672.91;5010122;28;20417;-76
2021/09/02 03:50:37;;;;;;;3.73;3.23;;;;;;;9.04;100.00;96677.22;5016100;28;20471;-76
2021/09/02 03:53:02;;;;;;;4.13;3.60;;;;;;;9.02;98.09;96679.06;5015200;28;20420;-76
2021/09/02 03:55:28;;;;;;;3.70;3.27;;;;;;;8.85;99.42;96680.59;5011034;28;20931;-76
2021/09/02 03:57:54;;;;;;;3.90;3.50;;;;;;;8.70;100.00;96670.88;5010854;28;20463;-75
2021/09/02 04:00:20;;;;;;;4.53;3.53;;;;;;;8.64;100.00;96678.88;5010732;28;20452;-76
2021/09/02 04:02:46;;;;;;;3.83;3.33;;;;;;;8.62;100.00;96673.78;5010713;28;20448;-76
2021/09/02 04:05:11;;;;;;;6.83;3.83;;;;;;;8.82;98.70;96672.94;5010648;28;20429;-76
2021/09/02 04:07:37;;;;;;;7.87;3.83;;;;;;;8.84;97.60;96673.75;5009336;28;20447;-76
2021/09/02 04:10:04;;;;;;;6.73;4.20;;;;;;;8.69;99.86;96669.22;5010839;28;20965;-76
2021/09/02 04:12:29;;;;;;;8.40;4.53;;;;;;;8.51;100.00;96675.97;5010538;28;20424;-76
2021/09/02 04:14:56;;;;;;;5.25;4.28;;;;;;;8.52;100.00;96676.78;5010576;28;20420;-75
2021/09/02 04:17:22;;;;;;;4.30;3.90;;;;;;;8.50;100.00;96669.13;5010471;28;20417;-76
2021/09/02 04:19:48;;;;;;;11.45;4.10;;;;;;;8.30;100.00;96675.03;5010602;28;20891;-76
2021/09/02 04:22:13;;;;;;;26.87;3.70;;;;;;;8.16;100.00;96673.00;5010726;28;20428;-77
2021/09/02 04:24:39;;;;;;;32.93;4.47;;;;;;;8.07;100.00;96668.19;5010503;28;20424;-76
2021/09/02 04:27:05;;;;;;;29.40;3.70;;;;;;;7.93;100.00;96679.00;5010217;28;20556;-77
2021/09/02 04:29:30;;;;;;;3.67;2.65;;;;;;;8.08;100.00;96672.44;5009542;28;20516;-77
2021/09/02 04:31:57;;;;;;;3.85;2.70;;;;;;;8.22;100.00;96666.75;5002544;28;20511;-76
2021/09/02 04:34:24;;;;;;;3.67;2.95;;;;;;;8.33;100.00;96677.50;5009878;28;20427;-77
2021/09/02 04:36:49;;;;;;;3.90;3.20;;;;;;;8.43;100.00;96676.25;5011427;28;20487;-75
2021/09/02 04:39:15;;;;;;;5.47;3.92;;;;;;;8.38;100.00;96679.91;5013674;28;20500;-75
2021/09/02 04:41:41;;;;;;;3.63;3.30;;;;;;;8.39;100.00;96679.88;5012214;28;20420;-75
2021/09/02 04:44:06;;;;;;;5.63;3.97;;;;;;;8.41;100.00;96687.53;5013627;28;20422;-76
2021/09/02 04:46:32;;;;;;;3.60;2.83;;;;;;;8.45;100.00;96689.09;5013804;28;20502;-76
2021/09/02 04:48:58;;;;;;;26.87;3.23;;;;;;;8.33;100.00;96687.81;5013507;28;20818;-76
2021/09/02 04:51:24;;;;;;;23.83;2.50;;;;;;;8.19;100.00;96685.78;5012441;28;20756;-76
2021/09/02 04:53:49;;;;;;;15.13;2.13;;;;;;;8.14;100.00;96692.00;5012182;28;20593;-77
2021/09/02 04:56:15;;;;;;;7.37;1.87;;;;;;;8.21;100.00;96693.47;5012437;28;20513;-76
2021/09/02 04:58:40;;;;;;;3.50;2.10;;;;;;;8.35;100.00;96691.19;5013641;28;20452;-76
2021/09/02 05:01:06;;;;;;;2.57;2.20;;;;;;;8.41;100.00;96698.69;5013436;28;20810;-76
2021/09/02 05:03:31;;;;;;;7.83;2.80;;;;;;;8.39;100.00;96691.94;5013414;28;20447;-77
2021/09/02 05:05:58;;;;;;;7.67;2.80;;;;;;;8.34;100.00;96699.81;5013392;28;20424;-77
2021/09/02 05:08:24;;;;;;;4.70;2.75;;;;;;;8.24;100.00;96695.94;5011788;28;20956;-76
2021/09/02 05:10:49;;;;;;;3.53;2.83;;;;;;;8.38;100.00;96695.41;5012239;28;20413;-77
2021/09/02 05:13:15;;;;;;;3.42;2.63;;;;;;;8.46;100.00;96699.38;5012171;28;20428;-76
2021/09/02 05:15:40;;;;;;;4.15;2.80;;;;;;;8.45;100.00;96695.13;5013299;28;20474;-76
2021/09/02 05:18:06;;;;;;;3.58;3.08;;;;;;;8.50;100.00;96702.69;5013439;28;20452;-76
2021/09/02 05:20:32;;;;;;;4.10;2.63;;;;;;;8.57;100.00;96700.69;5012228;28;20712;-77
2021/09/02 05:22:59;;;;;;;4.18;3.38;;;;;;;8.67;100.00;96696.81;5012007;28;20417;-76
2021/09/02 05:25:24;;;;;;;3.78;3.45;;;;;;;8.71;100.00;96695.78;5012894;28;20428;-77
2021/09/02 05:27:49;;;;;;;3.80;3.40;;;;;;;8.78;100.00;96699.81;5012618;28;20413;-77
2021/09/02 05:30:15;;;;;;;4.17;3.40;;;;;;;8.76;100.00;96696.47;5012311;28;20966;-76
2021/09/02 05:32:41;;;;;;;4.93;3.50;;;;;;;8.87;100.00;96696.03;5012696;28;20421;-77
2021/09/02 05:35:07;;;;;;;3.53;3.23;;;;;;;9.02;100.00;96697.16;5013010;28;20416;-76
2021/09/02 05:37:33;;;;;;;3.60;3.20;;;;;;;8.97;100.00;96694.72;5013125;28;20902;-76
2021/09/02 05:40:00;;;;;;;3.80;2.88;;;;;;;8.96;100.00;96693.88;5013432;28;20424;-76
2021/09/02 05:42:25;;;;;;;3.42;3.00;;;;;;;8.99;100.00;96698.09;5012706;28;20428;-76
2021/09/02 05:44:51;;;;;;;2.72;2.53;;;;;;;9.15;100.00;96695.69;5012400;28;20420;-76
2021/09/02 05:47:16;;;;;;;3.58;2.72;;;;;;;9.22;100.00;96691.97;5012121;28;20443;-76
2021/09/02 05:49:41;;;;;;;4.45;3.15;;;;;;;9.37;100.00;96688.72;5011655;28;20452;-76
2021/09/02 05:52:07;;;;;;;3.10;2.80;;;;;;;9.49;100.00;96695.09;5011112;28;20455;-76
2021/09/02 05:54:32;;;;;;;2.97;2.67;;;;;;;9.64;100.00;96701.34;5012207;28;20453;-76
2021/09/02 05:56:59;;;;;;;5.10;3.00;;;;;;;9.82;100.00;96694.50;5011613;28;20471;-76
2021/09/02 05:59:25;;;;;;;2.90;2.50;;;;;;;9.98;100.00;96692.91;5010087;28;20434;-76
2021/09/02 06:01:50;;;;;;;3.60;2.90;;;;;;;10.15;100.00;96692.13;5012745;28;20495;-76
2021/09/02 06:04:16;;;;;;;3.23;2.93;;;;;;;10.30;100.00;96686.25;5013397;28;20910;-77
2021/09/02 06:06:41;;;;;;;3.70;3.30;;;;;;;10.46;100.00;96685.56;5011327;28;20426;-77
2021/09/02 06:09:07;;;;;;;3.87;2.93;;;;;;;10.43;100.00;96686.53;5013324;28;20413;-77
2021/09/02 06:11:33;;;;;;;4.72;3.58;;;;;;;10.47;100.00;96687.22;5011414;28;20425;-76
2021/09/02 06:14:00;;;;;;;3.63;3.28;;;;;;;10.50;100.00;96690.53;5011279;28;20432;-76
2021/09/02 06:16:25;;;;;;;3.47;3.17;;;;;;;10.65;100.00;96694.13;5010504;28;20420;-75
2021/09/02 06:18:51;;;;;;;6.03;3.27;;;;;;;10.79;100.00;96696.88;4992625;28;20468;-76
2021/09/02 06:21:16;;;;;;;5.20;3.13;;;;;;;10.78;100.00;96696.94;4992840;28;20429;-78
2021/09/02 06:23:42;;;;;;;4.63;2.97;;;;;;;10.61;100.00;96703.78;4992217;28;20430;-78
2021/09/02 06:26:08;;;;;;;2.97;2.67;;;;;;;10.43;100.00;96702.06;4993116;28;20470;-78
2021/09/02 06:28:33;;;;;;;4.10;3.30;;;;;;;10.41;100.00;96709.91;4993804;28;20422;-78
2021/09/02 06:31:00;;;;;;;3.33;3.03;;;;;;;10.43;100.00;96709.84;5001766;28;20413;-78
2021/09/02 06:33:25;;;;;;;4.18;3.78;;;;;;;10.27;100.00;96709.72;5011491;28;20515;-72
2021/09/02 06:35:51;;;;;;;4.00;3.60;;;;;;;10.46;100.00;96706.28;5012128;28;20511;-77
2021/09/02 06:38:16;;;;;;;4.13;3.50;;;;;;;10.80;100.00;96700.31;5012384;28;20420;-78
2021/09/02 06:40:42;;;;;;;4.73;3.90;;;;;;;10.80;100.00;96706.34;5013139;28;20421;-78
2021/09/02 06:43:08;;;;;;;6.00;4.40;;;;;;;10.56;100.00;96705.75;5012019;28;20433;-77
2021/09/02 06:45:33;;;;;;;5.63;5.00;;;;;;;10.59;100.00;96707.34;5010290;28;20429;-77
2021/09/02 06:48:00;;;;;;;5.00;4.50;;;;;;;10.88;100.00;96701.59;5012767;28;20817;-77
2021/09/02 06:50:26;;;;;;;5.53;3.97;;;;;;;11.31;100.00;96708.97;5011733;28;20499;-78
2021/09/02 06:52:51;;;;;;;6.70;5.63;;;;;;;11.65;100.00;96707.28;5011883;28;20421;-76
2021/09/02 06:55:17;;;;;;;8.97;5.33;;;;;;;11.78;100.00;96706.53;5010509;28;20866;-77
2021/09/02 06:57:42;;;;;;;7.43;5.20;;;;;;;11.64;100.00;96711.59;5012697;28;20428;-77
2021/09/02 07:00:09;;;;;;;12.13;4.77;;;;;;;11.88;100.00;96708.69;5012550;28;20417;-78
2021/09/02 07:02:35;;;;;;;6.70;4.78;;;;;;;12.24;100.00;96711.09;5009121;28;20430;-77
2021/09/02 07:05:03;;;;;;;7.65;5.18;;;;;;;11.99;100.00;96715.00;4992929;28;20974;-77
2021/09/02 07:07:29;;;;;;;5.60;4.85;;;;;;;11.96;100.00;96712.53;5004751;28;20834;-77
2021/09/02 07:09:54;;;;;;;9.00;5.23;;;;;;;12.38;100.00;96707.72;5009830;28;20429;-77
2021/09/02 07:12:19;;;;;;;6.87;4.43;;;;;;;12.74;98.96;96713.47;5011165;28;20416;-77
2021/09/02 07:14:45;;;;;;;7.53;4.83;;;;;;;13.12;98.71;96709.59;5011334;28;20420;-77
2021/09/02 07:17:10;;;;;;;5.97;4.70;;;;;;;13.55;98.49;96710.56;5011278;28;20503;-77
2021/09/02 07:19:36;;;;;;;7.95;5.47;;;;;;;13.95;98.27;96721.16;5010066;28;20436;-76
2021/09/02 07:22:03;;;;;;;9.87;4.97;;;;;;;14.18;91.24;96717.97;5011258;28;20467;-77
2021/09/02 07:24:28;;;;;;;6.68;5.53;;;;;;;13.93;90.72;96720.41;5009495;28;20447;-77
2021/09/02 07:26:54;;;;;;;7.20;5.30;;;;;;;14.06;91.24;96720.53;4991286;28;20434;-77
2021/09/02 07:29:19;;;;;;;6.60;5.57;;;;;;;14.07;91.56;96725.63;4991291;28;20425;-76
2021/09/02 07:31:45;;;;;;;9.83;7.00;;;;;;;14.20;90.41;96723.09;4999495;28;20433;-77
2021/09/02 07:34:10;;;;;;;6.67;5.97;;;;;;;14.03;90.36;96719.75;5009540;28;20425;-76
2021/09/02 07:36:37;;;;;;;7.73;5.97;;;;;;;14.17;90.90;96721.53;5010710;28;20423;-76
2021/09/02 07:39:05;;;;;;;9.98;6.13;;;;;;;14.39;92.11;96723.63;5009473;28;20447;-76
2021/09/02 07:41:30;;;;;;;9.25;6.03;;;;;;;14.62;91.79;96719.59;5010941;28;20443;-76
2021/09/02 07:43:56;;;;;;;7.73;6.50;;;;;;;15.09;88.97;96715.69;5010862;28;20508;-76
2021/09/02 07:46:21;;;;;;;10.93;6.10;;;;;;;15.52;88.78;96719.81;5009359;28;20919;-76
2021/09/02 07:48:47;;;;;;;6.85;5.38;;;;;;;15.72;84.29;96722.78;5009633;28;20498;-76
2021/09/02 07:51:13;;;;;;;8.52;6.15;;;;;;;15.71;85.39;96728.94;5011348;28;20443;-76
2021/09/02 07:53:39;;;;;;;6.95;5.65;;;;;;;15.72;84.82;96735.84;5009359;28;20440;-77
2021/09/02 07:56:06;;;;;;;8.90;5.77;;;;;;;15.58;85.41;96737.69;5010532;28;20416;-76
2021/09/02 07:58:31;;;;;;;5.73;4.83;;;;;;;15.71;87.67;96735.94;5010742;28;20788;-76
2021/09/02 08:00:57;;;;;;;9.80;5.70;;;;;;;16.11;86.35;96734.03;5010865;28;20424;-77
2021/09/02 08:03:22;;;;;;;6.47;5.67;;;;;;;16.47;81.18;96742.03;5007527;28;20465;-77
2021/09/02 08:05:48;;;;;;;6.70;5.97;;;;;;;16.77;80.63;96739.84;4991528;28;20430;-77
2021/09/02 08:08:16;;;;;;;8.80;5.75;;;;;;;16.97;79.38;96745.41;4991956;28;20422;-77
2021/09/02 08:10:42;;;;;;;6.88;5.30;;;;;;;16.83;79.54;96744.63;5004606;28;20475;-76
2021/09/02 08:13:09;;;;;;;7.63;5.53;;;;;;;16.33;83.12;96749.06;5013116;28;20420;-76
2021/09/02 08:15:36;;;;;;;8.02;5.53;;;;;;;16.02;83.93;96741.66;5013102;28;20874;-76
2021/09/02 08:18:02;;;;;;;12.02;5.97;;;;;;;15.97;84.85;96742.00;5014560;28;20425;-76
2021/09/02 08:20:28;;;;;;;9.18;5.63;;;;;;;16.04;84.00;96742.41;5015189;28;20480;-76
2021/09/02 08:22:53;;;;;;;8.10;6.57;;;;;;;15.77;85.96;96738.13;5014306;28;20424;-76
2021/09/02 08:25:19;;;;;;;10.80;6.10;;;;;;;16.02;85.13;96747.75;5014156;28;20469;-75
2021/09/02 08:27:45;;;;;;;8.97;6.33;;;;;;;16.18;83.67;96739.69;5012856;28;20504;-75
2021/09/02 08:30:14;;;;;;;8.65;6.40;;;;;;;16.47;83.08;96736.78;5012589;28;20435;-76
2021/09/02 08:32:46;;;;;;;11.38;7.45;;;;;;;16.70;78.30;96735.97;5014783;28;20424;-76
2021/09/02 08:35:12;;;;;;;10.35;6.30;;;;;;;17.07;80.25;96730.72;5013800;28;20421;-76
2021/09/02 08:37:37;;;;;;;6.85;6.18;;;;;;;16.95;79.87;96734.25;5014125;28;20482;-76
2021/09/02 08:40:04;;;;;;;8.97;6.83;;;;;;;17.27;77.76;96729.25;5012830;28;20433;-76
2021/09/02 08:42:30;;;;;;;7.63;6.22;;;;;;;17.95;78.06;96731.09;5013266;28;20420;-75
2021/09/02 08:44:55;;;;;;;9.13;6.70;;;;;;;18.57;71.26;96730.56;5013063;28;20970;-76
2021/09/02 08:47:23;;;;;;;7.10;6.35;;;;;;;18.97;67.64;96730.00;5012676;28;20508;-75
2021/09/02 08:49:49;;;;;;;6.63;5.97;;;;;;;19.09;70.53;96733.41;5012698;28;20420;-79
2021/09/02 08:52:15;;;;;;;9.67;6.87;;;;;;;19.31;64.19;96735.94;5007819;28;20453;-78
2021/09/02 08:54:41;;;;;;;9.75;7.03;;;;;;;19.43;65.97;96731.50;5013625;28;20439;-75
2021/09/02 08:57:07;;;;;;;8.48;6.32;;;;;;;19.39;64.32;96718.72;5013505;28;20427;-75
2021/09/02 08:59:32;;;;;;;8.73;6.63;;;;;;;19.50;64.81;96729.16;5007996;28;20430;-75
2021/09/02 09:01:57;;;;;;;9.93;6.07;;;;;;;19.61;61.88;96725.66;5007790;28;20448;-75
2021/09/02 09:04:32;;;;;;;8.73;6.27;;;;;;;19.76;64.43;96733.13;5012274;28;20507;-75
2021/09/02 09:06:58;;;;;;;8.50;5.93;;;;;;;19.98;62.95;96724.22;4995140;28;20437;-75
2021/09/02 09:09:23;;;;;;;7.07;5.95;;;;;;;20.00;62.08;96727.56;5011841;28;20807;-75
2021/09/02 09:11:49;;;;;;;8.17;5.60;;;;;;;19.95;62.26;96721.03;5013302;28;20420;-75
2021/09/02 09:14:18;;;;;;;7.00;6.07;;;;;;;20.16;61.23;96727.06;5005609;28;20524;-75
2021/09/02 09:16:46;;;;;;;8.03;5.93;;;;;;;20.11;60.64;96726.66;5008859;28;20441;-76
2021/09/02 09:19:39;;;;;;;7.93;6.20;;;;;;;20.32;62.55;96723.97;5008298;28;20830;-75
2021/09/02 09:22:06;;;;;;;6.60;5.72;;;;;;;20.53;61.77;96718.66;5005523;28;20428;-76
2021/09/02 09:24:47;;;;;;;6.38;5.53;;;;;;;20.57;64.29;96722.66;5011291;28;20596;-75
2021/09/02 09:27:13;;;;;;;6.90;5.20;;;;;;;20.57;63.61;96721.84;5013107;28;20425;-75
2021/09/02 09:29:39;;;;;;;6.97;5.68;;;;;;;20.45;61.63;96713.19;5011870;28;20486;-75
2021/09/02 09:32:13;;;;;;;8.90;6.00;;;;;;;20.27;61.46;96713.00;5000344;28;20907;-75
2021/09/02 09:34:49;;;;;;;7.07;5.85;;;;;;;20.21;64.96;96708.25;5013160;28;20413;-75
2021/09/02 09:37:14;;;;;;;7.93;6.32;;;;;;;20.18;62.94;96711.19;5011738;28;20440;-75
2021/09/02 09:39:40;;;;;;;8.63;5.70;;;;;;;20.24;64.91;96705.38;5013188;28;20919;-75
2021/09/02 09:42:06;;;;;;;10.00;6.00;;;;;;;20.27;63.15;96702.47;5011958;28;20476;-75
2021/09/02 09:44:32;;;;;;;9.68;5.72;;;;;;;20.14;64.47;96696.63;5013380;28;20938;-75
2021/09/02 09:47:09;;;;;;;7.07;5.10;;;;;;;20.26;60.01;96698.19;5012164;28;20435;-77
2021/09/02 09:49:52;;;;;;;6.97;5.38;;;;;;;20.28;65.16;96698.88;5012016;28;20421;-76
2021/09/02 09:52:27;;;;;;;6.50;5.30;;;;;;;20.31;62.90;96688.09;5013027;28;20421;-76
2021/09/02 09:54:59;;;;;;;5.43;4.60;;;;;;;20.43;62.05;96692.28;5010908;28;20425;-77
2021/09/02 09:57:28;;;;;;;6.50;4.85;;;;;;;20.59;57.52;96693.59;5011554;28;20496;-77
2021/09/02 09:59:54;;;;;;;5.40;4.63;;;;;;;20.72;57.78;96691.53;5012434;28;20894;-75
2021/09/02 10:02:20;;;;;;;5.13;4.63;;;;;;;20.85;57.80;96694.75;5009997;28;20431;-77
2021/09/02 10:04:47;;;;;;;6.07;5.00;;;;;;;21.02;56.06;96691.44;5018029;28;20417;-77
2021/09/02 10:07:17;;;;;;;7.30;4.83;;;;;;;20.76;57.57;96690.28;5018667;28;20513;-77
2021/09/02 10:09:42;;;;;;;6.47;5.03;;;;;;;20.68;57.79;96683.06;5014276;28;20456;-78
2021/09/02 10:12:08;;;;;;;8.02;5.32;;;;;;;20.50;56.99;96682.91;5015793;28;20465;-77
2021/09/02 10:14:34;;;;;;;5.30;4.80;;;;;;;20.61;62.73;96683.75;5012076;28;20838;-77
2021/09/02 10:17:00;;;;;;;5.63;4.63;;;;;;;20.70;62.84;96680.31;5011632;28;20440;-77
2021/09/02 10:19:27;;;;;;;5.57;5.03;;;;;;;20.76;59.47;96677.13;5011392;28;20421;-77
2021/09/02 10:21:53;;;;;;;6.93;5.10;;;;;;;20.69;59.97;96682.13;5012733;28;20891;-77
2021/09/02 10:24:37;;;;;;;5.65;4.95;;;;;;;20.86;56.49;96677.97;5012195;28;20421;-77
2021/09/02 10:27:33;;;;;;;9.55;4.90;;;;;;;20.78;57.49;96672.56;5009042;28;20432;-77
2021/09/02 10:29:58;;;;;;;5.47;4.60;;;;;;;20.69;57.57;96684.75;5010886;28;20528;-77
2021/09/02 10:32:30;;;;;;;6.17;4.83;;;;;;;20.89;60.07;96679.50;5011170;28;20523;-77
2021/09/02 10:35:29;;;;;;;5.90;4.80;;;;;;;21.01;58.07;96678.38;5010780;28;20474;-77
2021/09/02 10:37:55;;;;;;;10.18;5.07;;;;;;;21.14;59.20;96680.75;5010956;28;20472;-76
2021/09/02 10:40:51;;;;;;;6.53;4.97;;;;;;;21.05;56.33;96673.69;5012649;28;21320;-78
2021/09/02 10:43:44;;;;;;;8.10;5.13;;;;;;;21.09;55.64;96667.16;5012681;28;20459;-76
2021/09/02 10:46:23;;;;;;;6.50;5.25;;;;;;;21.23;58.97;96672.00;5011718;28;20786;-76
2021/09/02 10:48:49;;;;;;;6.45;4.78;;;;;;;21.22;54.02;96676.44;5011892;28;20416;-76
2021/09/02 10:51:34;;;;;;;4.77;4.20;;;;;;;21.09;57.68;96661.88;5011922;28;20416;-76
2021/09/02 10:54:00;;;;;;;5.47;4.60;;;;;;;20.90;59.15;96666.19;5010640;28;20431;-76
2021/09/02 10:56:33;;;;;;;6.05;5.13;;;;;;;20.85;60.02;96664.94;5012160;28;20922;-76
2021/09/02 10:58:59;;;;;;;6.03;4.72;;;;;;;20.44;58.53;96658.91;5010497;28;20480;-75
2021/09/02 11:01:25;;;;;;;6.20;5.05;;;;;;;20.70;61.23;96659.25;5011449;28;20976;-75
2021/09/02 11:03:52;;;;;;;5.80;5.07;;;;;;;20.83;57.75;96665.06;5011485;28;20456;-75
2021/09/02 11:06:17;;;;;;;8.73;5.60;;;;;;;20.50;59.26;96655.75;5010107;28;20425;-75
2021/09/02 11:08:43;;;;;;;6.07;5.47;;;;;;;20.51;60.76;96660.91;5010343;28;20421;-75
2021/09/02 11:11:10;;;;;;;8.77;6.05;;;;;;;20.41;63.64;96664.44;5011637;28;20425;-76
2021/09/02 11:13:37;;;;;;;7.00;5.65;;;;;;;20.22;64.04;96662.59;5010393;28;20431;-75
2021/09/02 11:16:07;;;;;;;7.35;5.70;;;;;;;20.33;65.92;96651.97;5010042;28;20520;-75
2021/09/02 11:18:40;;;;;;;5.95;5.30;;;;;;;20.53;60.29;96655.50;5011529;28;20919;-76
2021/09/02 11:21:10;;;;;;;7.15;5.75;;;;;;;20.63;60.60;96653.72;5010314;28;20460;-80
2021/09/02 11:23:40;;;;;;;7.28;5.65;;;;;;;20.54;57.72;96655.38;5011598;28;20919;-76
2021/09/02 11:26:05;;;;;;;7.55;5.40;;;;;;;20.69;63.34;96657.56;5009996;28;20468;-71
2021/09/02 11:28:47;;;;;;;7.53;5.93;;;;;;;20.71;60.00;96653.03;5011470;28;20544;-76
2021/09/02 11:31:13;;;;;;;7.72;5.95;;;;;;;20.82;62.22;96657.31;5011404;28;20468;-76